Flight Track Log - Related Links

Times and Time Zones

All times are in EDT time to prevent confusion due to time zone crossing. See the N560KL flight status page for this flight to view local times or setup timezone preferences in your user account.


Time Position Orientation Groundspeed Altitude Reporting Facility
EDT Latitude Longitude Course Direction KTS MPH feet Rate Location/Type
Fri 01:08:37 PM 41.0833 -73.7333 312° West 179 206 2,400  Level New York TRACON
Fri 01:09:32 PM 41.1167 -73.7833 312° West 228 262 5,100 3,350 Climbing New York TRACON
Fri 01:10:37 PM 41.1833 -73.7833 360° North 269 310 9,100 3,095 Climbing New York TRACON
Fri 01:11:38 PM 41.2333 -73.7000 51° Northeast 299 344 11,600 1,718 Climbing New York TRACON
Fri 01:14:03 PM 41.3039 -73.4347 70° East 347 399 15,000 995 Climbing Boston Center
Fri 01:15:03 PM 41.3467 -73.3167 64° Northeast 353 406 15,000  Level Boston Center
Fri 01:16:03 PM 41.3975 -73.1817 63° Northeast 358 412 15,000  Level Boston Center
Fri 01:17:03 PM 41.4400 -73.0769 62° Northeast 358 412 15,000  Level Boston Center
Fri 01:18:03 PM 41.4906 -72.9472 62° Northeast 358 412 15,000  Level Boston Center
Fri 01:19:03 PM 41.5306 -72.8394 64° Northeast 358 412 15,000  Level Boston Center
Fri 01:20:03 PM 41.5831 -72.7039 63° Northeast 363 418 15,000 -100 Level Boston Center
Fri 01:21:03 PM 41.6272 -72.5983 61° Northeast 363 418 14,800 -850 Descending Boston Center
Fri 01:22:03 PM 41.7106 -72.4983 42° Northeast 357 411 13,300 -1,516 Descending Boston Center
Fri 01:22:38 PM 41.7544 -72.4483 40° Northeast 354 407 12,400 -1,444 Descending Boston Center
Fri 01:22:57 PM 41.7731 -72.4233 45° Northeast 345 397 12,000 -1,050 Descending Boston Center
Fri 01:23:58 PM 41.8439 -72.3397 41° Northeast 333 383 11,000 -496 Descending Boston Center
Fri 01:24:58 PM 41.9125 -72.2589 41° Northeast 326 375 11,000  Level Boston Center
Fri 01:25:15 PM 41.9106 -72.2617 227° Southwest 329 379 11,000 -787 Level Boston Center
Fri 01:25:59 PM 41.9811 -72.1747 42° Northeast 331 381 10,200 -571 Descending Boston Center
Fri 01:27:00 PM 42.0519 -72.0933 40° Northeast 320 368 10,000 -787 Descending Boston Center
Fri 01:28:01 PM 42.1119 -72.0203 42° Northeast 278 320 8,600 -1,594 Descending Boston Center
Fri 01:29:08 PM 42.1639 -71.9414 48° Northeast 256 295 6,600 -1,014 Descending Boston Center
Fri 01:31:34 PM 42.3000 -71.8000 38° Northeast 244 281 5,000 -464 Descending KA90
Fri 01:32:35 PM 42.3500 -71.7500 36° Northeast 243 280 5,000 -298 Level KA90
Fri 01:33:35 PM 42.4000 -71.6667 51° Northeast 247 284 4,400 -960 Descending KA90
Fri 01:34:40 PM 42.4333 -71.6000 56° Northeast 230 265 3,000 -756 Descending KA90
Fri 01:35:34 PM 42.4667 -71.5333 56° Northeast 226 260 2,900 -110 Descending KA90
Fri 01:36:29 PM 42.4833 -71.4667 71° East 230 265 2,800 -368 Descending KA90
Fri 01:37:28 PM 42.5000 -71.3833 75° East 227 261 2,200 -480 Descending KA90
Fri 01:38:34 PM 42.5000 -71.3000 90° East 199 229 1,800 -189 Descending KA90
Fri 01:39:35 PM 42.5000 -71.2333 90° East 170 196 1,800 -47 Level KA90
Fri 01:40:41 PM 42.4833 -71.1833 114° Southeast 168 193 1,700 -421 Descending KA90
Fri 01:41:29 PM 42.4667 -71.2167 236° Southwest 150 173 1,000 -678 Descending KA90
Fri 01:42:36 PM 42.4667 -71.2667 270° West 134 154 400 -537 Descending KA90

Login

Don't have an account? Register now (free) for customized features, flight alerts, and more!